Terminal Aerodrome Forecast
Issued by NWS Wichita, KS

Home | Current Version | Previous Version | Text Only | Print | Product List | Glossary On
Versions: 1 2 3 4 5 6 7 8 9 10 11 12 13 14
916
FTUS43 KICT 271601 AAB
TAFICT
TAF AMD
KICT 271601Z 2716/2812 15011KT P6SM SCT009 OVC015
     FM271700 16012KT P6SM OVC009
     FM272200 17014KT P6SM SCT015
     FM280300 16012KT 6SM BR OVC008=

USA.gov is the U.S. government's official web portal to all federal, state and local government web resources and services.